createdAt,value
2022-11-24T00:02:44.625Z,2.30
2022-11-24T00:07:47.823Z,2.40
2022-11-24T00:12:50.856Z,2.50
2022-11-24T00:17:55.390Z,2.40
2022-11-24T00:22:58.600Z,2.60
2022-11-24T00:28:01.773Z,2.50
2022-11-24T00:33:06.249Z,2.60
2022-11-24T00:38:09.311Z,2.50
2022-11-24T00:43:12.538Z,2.50
2022-11-24T00:48:16.937Z,2.50
2022-11-24T00:53:19.989Z,2.60
2022-11-24T00:58:24.546Z,2.30
2022-11-24T01:03:28.981Z,2.60
2022-11-24T01:08:32.226Z,2.60
2022-11-24T01:13:35.326Z,2.50
2022-11-24T01:18:40.865Z,2.60
2022-11-24T01:23:44.530Z,2.50
2022-11-24T01:28:48.151Z,2.50
2022-11-24T01:33:52.977Z,2.60
2022-11-24T01:38:56.228Z,2.60
2022-11-24T01:43:59.258Z,2.60
2022-11-24T01:49:13.131Z,2.70
2022-11-24T01:54:20.245Z,2.70
2022-11-24T01:59:24.028Z,2.50
2022-11-24T02:04:32.845Z,2.60
2022-11-24T02:09:43.171Z,2.60
2022-11-24T02:14:46.741Z,2.50
2022-11-24T02:19:56.305Z,2.70
2022-11-24T02:25:07.112Z,2.40
2022-11-24T02:30:11.964Z,2.50
2022-11-24T02:35:16.159Z,2.50
2022-11-24T02:40:25.141Z,2.40
2022-11-24T02:45:31.406Z,2.40
2022-11-24T02:50:34.454Z,2.40
2022-11-24T02:55:37.526Z,2.40
2022-11-24T03:00:41.892Z,2.40
2022-11-24T03:05:44.974Z,2.40
2022-11-24T03:10:48.140Z,2.40
2022-11-24T03:15:52.510Z,2.40
2022-11-24T03:20:59.789Z,2.40
2022-11-24T03:26:10.645Z,2.40
2022-11-24T03:31:15.493Z,2.30
2022-11-24T03:36:19.085Z,2.30
2022-11-24T03:41:22.225Z,2.20
2022-11-24T03:46:26.788Z,2.30
2022-11-24T03:51:29.914Z,2.30
2022-11-24T03:56:33.038Z,2.30
2022-11-24T04:01:37.622Z,2.30
2022-11-24T04:06:40.871Z,2.20
2022-11-24T04:12:02.495Z,2.10
2022-11-24T04:17:06.887Z,2.30
2022-11-24T04:22:10.158Z,2.20
2022-11-24T04:27:13.223Z,2.20
2022-11-24T04:32:17.671Z,2.30
2022-11-24T04:37:20.909Z,2.30
2022-11-24T04:42:23.989Z,2.20
2022-11-24T04:47:28.774Z,2.10
2022-11-24T04:52:32.821Z,2.10
2022-11-24T04:57:36.355Z,2.10
2022-11-24T05:02:40.695Z,2.00
2022-11-24T05:07:43.825Z,2.10
2022-11-24T05:12:54.215Z,2.20
2022-11-24T05:17:58.754Z,2.10
2022-11-24T05:23:03.107Z,2.10
2022-11-24T05:28:10.970Z,2.20
2022-11-24T05:33:19.024Z,2.10
2022-11-24T05:38:23.769Z,2.00
2022-11-24T05:43:26.949Z,2.00
2022-11-24T05:48:31.300Z,2.00
2022-11-24T05:53:34.579Z,2.10
2022-11-24T05:58:37.686Z,2.00
2022-11-24T06:03:42.034Z,2.00
2022-11-24T06:08:45.138Z,1.90
2022-11-24T06:13:48.806Z,2.00
2022-11-24T06:18:53.551Z,1.90
2022-11-24T06:23:56.669Z,1.90
2022-11-24T06:28:59.853Z,1.90
2022-11-24T06:34:06.217Z,2.00
2022-11-24T06:39:10.487Z,2.00
2022-11-24T06:44:13.613Z,2.10
2022-11-24T06:49:18.226Z,2.00
2022-11-24T06:54:22.156Z,2.10
2022-11-24T06:59:26.467Z,2.10
2022-11-24T07:04:30.845Z,2.20
2022-11-24T07:09:34.065Z,2.20
2022-11-24T07:14:37.382Z,2.30
2022-11-24T07:19:42.046Z,2.50
2022-11-24T07:24:45.186Z,2.40
2022-11-24T07:29:48.203Z,2.30
2022-11-24T07:34:52.750Z,2.50
2022-11-24T07:39:55.944Z,2.30
2022-11-24T07:45:05.115Z,2.50
2022-11-24T07:50:13.414Z,2.50
2022-11-24T07:55:16.727Z,2.40
2022-11-24T08:00:20.393Z,2.50
2022-11-24T08:05:24.969Z,2.50
2022-11-24T08:10:28.220Z,2.60
2022-11-24T08:15:31.339Z,2.60
2022-11-24T08:20:35.840Z,2.70
2022-11-24T08:25:39.036Z,2.60
2022-11-24T08:30:42.207Z,2.80
2022-11-24T08:35:46.802Z,2.90
2022-11-24T08:40:49.969Z,2.90
2022-11-24T08:45:53.286Z,3.20
2022-11-24T08:50:58.454Z,3.30
2022-11-24T08:56:01.699Z,3.50
2022-11-24T09:01:06.524Z,3.50
2022-11-24T09:06:11.393Z,3.60
2022-11-24T09:11:16.362Z,3.70
2022-11-24T09:16:21.197Z,3.70
2022-11-24T09:21:25.679Z,3.80
2022-11-24T09:26:31.392Z,4.00
2022-11-24T09:31:36.751Z,4.00
2022-11-24T09:36:41.335Z,4.10
2022-11-24T09:42:12.511Z,4.10
2022-11-24T09:47:26.454Z,4.20
2022-11-24T09:52:40.115Z,4.40
2022-11-24T09:57:44.017Z,4.60
2022-11-24T10:02:49.383Z,4.80
2022-11-24T10:08:03.008Z,4.90
2022-11-24T10:13:22.991Z,5.20
2022-11-24T10:18:40.786Z,5.60
2022-11-24T10:24:03.021Z,5.60
2022-11-24T10:29:18.981Z,5.60
2022-11-24T10:34:27.517Z,5.40
2022-11-24T10:39:39.456Z,5.30
2022-11-24T10:44:43.405Z,5.40
2022-11-24T10:49:55.336Z,5.70
2022-11-24T10:55:02.408Z,6.40
2022-11-24T11:00:31.655Z,6.30
2022-11-24T11:05:42.226Z,6.20
2022-11-24T11:10:49.015Z,6.40
2022-11-24T11:15:52.670Z,6.30
2022-11-24T11:20:57.933Z,6.00
2022-11-24T11:26:32.791Z,6.00
2022-11-24T11:31:36.361Z,6.20
2022-11-24T11:36:42.042Z,6.10
2022-11-24T11:41:49.993Z,6.30
2022-11-24T11:46:54.805Z,6.30
2022-11-24T11:52:21.599Z,6.20
2022-11-24T11:57:35.131Z,6.10
2022-11-24T12:03:08.442Z,6.50
2022-11-24T12:08:28.219Z,6.40
2022-11-24T12:13:42.042Z,6.10
2022-11-24T12:18:58.900Z,5.90
2022-11-24T12:24:13.366Z,5.90
2022-11-24T12:29:58.496Z,5.90
2022-11-24T12:35:23.884Z,5.80
2022-11-24T12:40:40.919Z,6.00
2022-11-24T12:45:59.253Z,6.10
2022-11-24T12:51:06.556Z,6.20
2022-11-24T12:56:12.527Z,6.10
2022-11-24T13:01:25.451Z,5.90
2022-11-24T13:06:39.727Z,6.00
2022-11-24T13:11:45.212Z,6.10
2022-11-24T13:17:13.451Z,6.10
2022-11-24T13:22:23.324Z,6.10
2022-11-24T13:28:02.932Z,6.30
2022-11-24T13:33:37.709Z,6.10
2022-11-24T13:38:53.944Z,6.10
2022-11-24T13:44:24.514Z,6.20
2022-11-24T13:49:38.149Z,6.10
2022-11-24T13:54:42.856Z,6.00
2022-11-24T13:59:46.188Z,5.90
2022-11-24T14:04:50.394Z,6.00
2022-11-24T14:09:55.107Z,6.00
2022-11-24T14:15:23.479Z,5.90
2022-11-24T14:20:28.452Z,6.00
2022-11-24T14:25:33.240Z,6.00
2022-11-24T14:30:36.636Z,5.90
2022-11-24T14:35:43.789Z,5.90
2022-11-24T14:40:50.463Z,5.80
2022-11-24T14:45:56.094Z,5.80
2022-11-24T14:51:08.657Z,5.70
2022-11-24T14:56:24.942Z,5.60
2022-11-24T15:01:32.857Z,5.60
2022-11-24T15:06:36.505Z,5.50
2022-11-24T15:11:41.016Z,5.50
2022-11-24T15:16:44.276Z,5.40
2022-11-24T15:21:47.504Z,5.30
2022-11-24T15:27:00.161Z,5.20
2022-11-24T15:32:12.454Z,5.10
2022-11-24T15:37:15.606Z,5.20
2022-11-24T15:42:20.201Z,5.10
2022-11-24T15:47:23.324Z,5.20
2022-11-24T15:52:26.521Z,5.20
2022-11-24T15:57:32.387Z,5.20
2022-11-24T16:02:35.561Z,5.10
2022-11-24T16:07:38.719Z,5.10
2022-11-24T16:12:43.212Z,5.00
2022-11-24T16:17:46.411Z,4.90
2022-11-24T16:22:49.689Z,5.00
2022-11-24T16:27:54.326Z,4.90
2022-11-24T16:32:57.371Z,4.80
2022-11-24T16:38:00.505Z,4.70
2022-11-24T16:43:04.891Z,4.50
2022-11-24T16:48:07.924Z,4.60
2022-11-24T16:53:10.937Z,4.50
2022-11-24T16:58:15.315Z,4.50
2022-11-24T17:03:18.582Z,4.60
2022-11-24T17:08:21.630Z,4.70
2022-11-24T17:13:26.002Z,4.70
2022-11-24T17:18:29.043Z,4.80
2022-11-24T17:23:32.180Z,4.80
2022-11-24T17:28:36.914Z,4.60
2022-11-24T17:33:40.095Z,4.30
2022-11-24T17:38:43.129Z,4.00
2022-11-24T17:43:50.507Z,4.00
2022-11-24T17:48:54.054Z,4.00
2022-11-24T17:53:57.540Z,4.10
2022-11-24T17:59:02.197Z,4.20
2022-11-24T18:04:05.358Z,4.20
2022-11-24T18:09:08.522Z,4.30
2022-11-24T18:14:13.150Z,4.30
2022-11-24T18:19:16.338Z,4.20
2022-11-24T18:24:23.938Z,4.20
2022-11-24T18:29:28.724Z,4.10
2022-11-24T18:34:31.782Z,3.90
2022-11-24T18:39:34.950Z,3.70
2022-11-24T18:44:39.385Z,3.40
2022-11-24T18:49:42.587Z,3.20
2022-11-24T18:54:45.697Z,3.40
2022-11-24T18:59:50.094Z,3.40
2022-11-24T19:04:53.320Z,3.00
2022-11-24T19:09:56.579Z,2.90
2022-11-24T19:15:01.041Z,2.90
2022-11-24T19:20:05.603Z,2.90
2022-11-24T19:25:09.524Z,2.80
2022-11-24T19:30:15.633Z,2.70
2022-11-24T19:35:18.697Z,2.40
2022-11-24T19:40:21.724Z,2.30
2022-11-24T19:45:26.314Z,2.10
2022-11-24T19:50:29.659Z,2.10
2022-11-24T19:55:32.745Z,2.20
2022-11-24T20:00:37.282Z,1.80
2022-11-24T20:05:40.334Z,1.80
2022-11-24T20:10:43.445Z,1.70
2022-11-24T20:15:47.957Z,1.60
2022-11-24T20:20:50.987Z,1.50
2022-11-24T20:25:54.168Z,1.40
2022-11-24T20:31:02.252Z,1.40
2022-11-24T20:36:07.396Z,1.30
2022-11-24T20:41:11.703Z,1.10
2022-11-24T20:46:18.092Z,1.10
2022-11-24T20:51:23.187Z,0.90
2022-11-24T20:56:28.822Z,0.90
2022-11-24T21:01:35.308Z,0.80
2022-11-24T21:06:39.559Z,0.80
2022-11-24T21:11:42.912Z,0.80
2022-11-24T21:16:47.722Z,0.80
2022-11-24T21:21:51.185Z,0.70
2022-11-24T21:26:54.561Z,0.70
2022-11-24T21:31:59.467Z,0.70
2022-11-24T21:37:02.901Z,0.70
2022-11-24T21:42:06.509Z,0.60
2022-11-24T21:47:11.236Z,0.60
2022-11-24T21:52:15.387Z,0.50
2022-11-24T21:57:18.877Z,0.30
2022-11-24T22:02:23.467Z,0.40
2022-11-24T22:07:30.875Z,0.70
2022-11-24T22:12:34.068Z,1.00
2022-11-24T22:17:38.491Z,1.20
2022-11-24T22:22:41.645Z,1.40
2022-11-24T22:27:44.734Z,1.40
2022-11-24T22:32:49.258Z,1.70
2022-11-24T22:37:53.710Z,1.80
2022-11-24T22:42:58.383Z,2.00
2022-11-24T22:48:02.843Z,2.10
2022-11-24T22:53:06.295Z,2.20
2022-11-24T22:58:09.408Z,2.40
2022-11-24T23:03:14.015Z,2.40
2022-11-24T23:08:17.337Z,2.50
2022-11-24T23:13:25.470Z,2.70
2022-11-24T23:18:30.113Z,2.80
2022-11-24T23:23:33.641Z,2.80
2022-11-24T23:28:36.035Z,2.90
2022-11-24T23:33:41.854Z,2.80
2022-11-24T23:38:45.592Z,2.90
2022-11-24T23:43:49.021Z,3.00
2022-11-24T23:48:54.874Z,3.10
2022-11-24T23:53:59.141Z,3.10
2022-11-24T23:59:12.581Z,3.10
